Hegeler, Illinois
Current Conditions -  °F | °C
As of 2:35 PM on Saturday 25 Oct 2014 (Local Time) from KDNV Reporting Station
Clear Clear  
Wind Chill: 76°   Ceiling: Unl
Heat Index: 76°   Visibility: 7mi
Dew Point: 50°   Wind: 10mph
Humidity: 41%   Direction: 290°WNW
Pressure: 29.93"   Gusts: 17mph
Location:  40.1365°N, 87.6307°W
Report Text: KDNV 251935Z AUTO 29009G15KT 7SM CLR 24/10 A2993 RMK AO2 T02420101
Loading
Personal Weather Stations






























Interactive Weather Map New forecast layout! Learn more

10-Day Weather Forecast

Advertisements
Track Severe Weather on mobile